sensor_id;sensor_type;location;lat;lon;timestamp;pressure;altitude;pressure_sealevel;temperature;humidity
41234;BME280;26968;42.686;23.352;2024-03-02T00:01:20;94674.66;;;8.30;75.03
41234;BME280;26968;42.686;23.352;2024-03-02T00:03:46;94671.38;;;8.36;74.33
41234;BME280;26968;42.686;23.352;2024-03-02T00:06:11;94686.88;;;8.42;73.51
41234;BME280;26968;42.686;23.352;2024-03-02T00:08:37;94676.38;;;8.37;74.24
41234;BME280;26968;42.686;23.352;2024-03-02T00:11:02;94675.66;;;8.50;73.45
41234;BME280;26968;42.686;23.352;2024-03-02T00:13:29;94655.34;;;8.40;73.57
41234;BME280;26968;42.686;23.352;2024-03-02T00:15:59;94659.53;;;8.20;74.26
41234;BME280;26968;42.686;23.352;2024-03-02T00:18:30;94683.50;;;8.42;73.30
41234;BME280;26968;42.686;23.352;2024-03-02T00:20:57;94678.13;;;8.37;72.72
41234;BME280;26968;42.686;23.352;2024-03-02T00:23:23;94676.91;;;8.33;73.62
41234;BME280;26968;42.686;23.352;2024-03-02T00:25:52;94645.19;;;8.11;72.88
41234;BME280;26968;42.686;23.352;2024-03-02T00:31:07;94656.16;;;8.20;73.88
41234;BME280;26968;42.686;23.352;2024-03-02T00:33:34;94660.66;;;8.32;72.90
41234;BME280;26968;42.686;23.352;2024-03-02T00:36:02;94666.75;;;8.31;73.01
41234;BME280;26968;42.686;23.352;2024-03-02T00:38:29;94671.28;;;8.29;72.76
41234;BME280;26968;42.686;23.352;2024-03-02T00:40:57;94672.09;;;8.30;73.61
41234;BME280;26968;42.686;23.352;2024-03-02T00:45:55;94663.38;;;8.31;72.93
41234;BME280;26968;42.686;23.352;2024-03-02T00:48:20;94667.69;;;8.45;73.22
41234;BME280;26968;42.686;23.352;2024-03-02T00:50:46;94667.25;;;8.41;73.09
41234;BME280;26968;42.686;23.352;2024-03-02T00:53:11;94655.03;;;8.50;74.15
41234;BME280;26968;42.686;23.352;2024-03-02T00:55:37;94667.50;;;8.46;74.74
41234;BME280;26968;42.686;23.352;2024-03-02T00:58:03;94648.22;;;8.42;75.08
41234;BME280;26968;42.686;23.352;2024-03-02T01:00:29;94663.13;;;8.47;74.34
41234;BME280;26968;42.686;23.352;2024-03-02T01:02:54;94640.50;;;8.42;72.97
41234;BME280;26968;42.686;23.352;2024-03-02T01:05:19;94649.91;;;8.57;72.88
41234;BME280;26968;42.686;23.352;2024-03-02T01:07:45;94650.13;;;8.55;73.67
41234;BME280;26968;42.686;23.352;2024-03-02T01:10:11;94661.19;;;8.56;72.33
41234;BME280;26968;42.686;23.352;2024-03-02T01:12:36;94646.44;;;8.43;71.53
41234;BME280;26968;42.686;23.352;2024-03-02T01:15:02;94643.69;;;8.44;72.40
41234;BME280;26968;42.686;23.352;2024-03-02T01:17:31;94650.44;;;8.45;71.94
41234;BME280;26968;42.686;23.352;2024-03-02T01:19:56;94643.69;;;8.44;73.31
41234;BME280;26968;42.686;23.352;2024-03-02T01:22:23;94604.63;;;8.20;71.87
41234;BME280;26968;42.686;23.352;2024-03-02T01:24:51;94601.09;;;8.27;73.60
41234;BME280;26968;42.686;23.352;2024-03-02T01:27:16;94640.97;;;8.53;74.35
41234;BME280;26968;42.686;23.352;2024-03-02T01:29:41;94638.41;;;8.53;73.25
41234;BME280;26968;42.686;23.352;2024-03-02T01:32:07;94622.06;;;8.39;73.90
41234;BME280;26968;42.686;23.352;2024-03-02T01:34:32;94634.84;;;8.54;73.88
41234;BME280;26968;42.686;23.352;2024-03-02T01:36:58;94619.69;;;8.44;74.30
41234;BME280;26968;42.686;23.352;2024-03-02T01:39:23;94642.59;;;8.60;75.55
41234;BME280;26968;42.686;23.352;2024-03-02T01:41:48;94618.41;;;8.55;74.90
41234;BME280;26968;42.686;23.352;2024-03-02T01:44:14;94638.84;;;8.63;74.82
41234;BME280;26968;42.686;23.352;2024-03-02T01:46:39;94597.44;;;8.36;74.74
41234;BME280;26968;42.686;23.352;2024-03-02T01:49:05;94633.09;;;8.61;74.98
41234;BME280;26968;42.686;23.352;2024-03-02T01:51:31;94626.94;;;8.62;75.28
41234;BME280;26968;42.686;23.352;2024-03-02T01:53:56;94625.59;;;8.66;74.88
41234;BME280;26968;42.686;23.352;2024-03-02T01:56:22;94623.44;;;8.69;75.99
41234;BME280;26968;42.686;23.352;2024-03-02T01:58:47;94628.91;;;8.60;75.47
41234;BME280;26968;42.686;23.352;2024-03-02T02:01:13;94622.59;;;8.62;73.91
41234;BME280;26968;42.686;23.352;2024-03-02T02:03:39;94633.69;;;8.63;75.55
41234;BME280;26968;42.686;23.352;2024-03-02T02:06:06;94613.91;;;8.42;75.03
41234;BME280;26968;42.686;23.352;2024-03-02T02:08:32;94612.75;;;8.44;75.27
41234;BME280;26968;42.686;23.352;2024-03-02T02:10:58;94628.31;;;8.58;74.66
41234;BME280;26968;42.686;23.352;2024-03-02T02:13:24;94613.56;;;8.45;75.06
41234;BME280;26968;42.686;23.352;2024-03-02T02:15:49;94625.44;;;8.39;75.42
41234;BME280;26968;42.686;23.352;2024-03-02T02:18:16;94624.41;;;8.40;75.12
41234;BME280;26968;42.686;23.352;2024-03-02T02:20:41;94626.06;;;8.48;75.42
41234;BME280;26968;42.686;23.352;2024-03-02T02:23:07;94610.88;;;8.32;74.61
41234;BME280;26968;42.686;23.352;2024-03-02T02:25:35;94618.91;;;8.43;75.81
41234;BME280;26968;42.686;23.352;2024-03-02T02:28:00;94615.56;;;8.50;76.81
41234;BME280;26968;42.686;23.352;2024-03-02T02:30:27;94617.13;;;8.44;74.39
41234;BME280;26968;42.686;23.352;2024-03-02T02:32:53;94610.34;;;8.36;76.37
41234;BME280;26968;42.686;23.352;2024-03-02T02:35:18;94618.91;;;8.43;76.06
41234;BME280;26968;42.686;23.352;2024-03-02T02:37:45;94611.81;;;8.24;75.02
41234;BME280;26968;42.686;23.352;2024-03-02T02:40:12;94610.94;;;8.17;76.41
41234;BME280;26968;42.686;23.352;2024-03-02T02:42:38;94611.81;;;8.24;75.38
41234;BME280;26968;42.686;23.352;2024-03-02T02:45:04;94612.97;;;8.22;76.23
41234;BME280;26968;42.686;23.352;2024-03-02T02:47:30;94615.84;;;8.12;75.87
41234;BME280;26968;42.686;23.352;2024-03-02T02:49:55;94618.75;;;8.24;75.77
41234;BME280;26968;42.686;23.352;2024-03-02T02:52:21;94621.72;;;8.27;76.56
41234;BME280;26968;42.686;23.352;2024-03-02T02:54:46;94619.66;;;8.16;76.72
41234;BME280;26968;42.686;23.352;2024-03-02T02:57:12;94608.56;;;8.16;77.13
41234;BME280;26968;42.686;23.352;2024-03-02T02:59:37;94626.03;;;8.20;75.52
41234;BME280;26968;42.686;23.352;2024-03-02T03:02:03;94610.41;;;8.22;75.50
41234;BME280;26968;42.686;23.352;2024-03-02T03:04:29;94613.59;;;8.24;76.76
41234;BME280;26968;42.686;23.352;2024-03-02T03:06:54;94621.00;;;8.33;76.76
41234;BME280;26968;42.686;23.352;2024-03-02T03:09:20;94604.09;;;8.24;75.13
41234;BME280;26968;42.686;23.352;2024-03-02T03:11:45;94621.19;;;8.32;76.11
41234;BME280;26968;42.686;23.352;2024-03-02T03:14:11;94616.66;;;8.34;76.16
41234;BME280;26968;42.686;23.352;2024-03-02T03:16:36;94617.88;;;8.38;77.26
41234;BME280;26968;42.686;23.352;2024-03-02T03:19:02;94626.16;;;8.33;76.30
41234;BME280;26968;42.686;23.352;2024-03-02T03:21:28;94613.28;;;8.33;76.88
41234;BME280;26968;42.686;23.352;2024-03-02T03:23:53;94624.63;;;8.39;76.58
41234;BME280;26968;42.686;23.352;2024-03-02T03:26:20;94621.84;;;8.40;76.00
41234;BME280;26968;42.686;23.352;2024-03-02T03:28:46;94627.41;;;8.37;78.12
41234;BME280;26968;42.686;23.352;2024-03-02T03:31:11;94613.16;;;8.20;77.14
41234;BME280;26968;42.686;23.352;2024-03-02T03:33:37;94614.97;;;8.26;77.50
41234;BME280;26968;42.686;23.352;2024-03-02T03:36:02;94623.69;;;8.25;76.77
41234;BME280;26968;42.686;23.352;2024-03-02T03:38:29;94617.78;;;8.31;76.88
41234;BME280;26968;42.686;23.352;2024-03-02T03:40:55;94620.13;;;8.26;77.59
41234;BME280;26968;42.686;23.352;2024-03-02T03:43:20;94622.69;;;8.26;76.79
41234;BME280;26968;42.686;23.352;2024-03-02T03:45:45;94625.28;;;8.26;76.21
41234;BME280;26968;42.686;23.352;2024-03-02T03:48:11;94627.16;;;8.32;77.06
41234;BME280;26968;42.686;23.352;2024-03-02T03:50:36;94621.72;;;8.27;76.58
41234;BME280;26968;42.686;23.352;2024-03-02T03:53:03;94617.16;;;8.23;76.68
41234;BME280;26968;42.686;23.352;2024-03-02T03:55:28;94618.13;;;8.22;77.13
41234;BME280;26968;42.686;23.352;2024-03-02T03:57:54;94612.59;;;8.25;76.90
41234;BME280;26968;42.686;23.352;2024-03-02T04:00:19;94610.59;;;8.20;76.60
41234;BME280;26968;42.686;23.352;2024-03-02T04:02:45;94607.03;;;8.21;77.29
41234;BME280;26968;42.686;23.352;2024-03-02T04:05:10;94619.56;;;8.31;78.04
41234;BME280;26968;42.686;23.352;2024-03-02T04:07:37;94615.78;;;8.27;78.28
41234;BME280;26968;42.686;23.352;2024-03-02T04:10:09;94619.84;;;8.36;77.93
41234;BME280;26968;42.686;23.352;2024-03-02T04:12:38;94605.09;;;8.30;77.04
41234;BME280;26968;42.686;23.352;2024-03-02T04:15:07;94613.56;;;8.45;77.16
41234;BME280;26968;42.686;23.352;2024-03-02T04:17:33;94623.50;;;8.48;77.54
41234;BME280;26968;42.686;23.352;2024-03-02T04:19:59;94615.16;;;8.46;76.76
41234;BME280;26968;42.686;23.352;2024-03-02T04:22:26;94607.66;;;8.30;75.90
41234;BME280;26968;42.686;23.352;2024-03-02T04:24:52;94608.31;;;8.32;76.82
41234;BME280;26968;42.686;23.352;2024-03-02T04:27:18;94612.63;;;8.31;76.23
41234;BME280;26968;42.686;23.352;2024-03-02T04:29:43;94627.41;;;8.37;78.04
41234;BME280;26968;42.686;23.352;2024-03-02T04:32:09;94596.91;;;8.20;77.59
41234;BME280;26968;42.686;23.352;2024-03-02T04:34:34;94627.78;;;8.41;76.09
41234;BME280;26968;42.686;23.352;2024-03-02T04:37:00;94627.00;;;8.40;75.94
41234;BME280;26968;42.686;23.352;2024-03-02T04:39:25;94625.53;;;8.31;76.96
41234;BME280;26968;42.686;23.352;2024-03-02T04:41:51;94631.66;;;8.30;77.29
41234;BME280;26968;42.686;23.352;2024-03-02T04:44:16;94633.91;;;8.33;76.17
41234;BME280;26968;42.686;23.352;2024-03-02T04:46:42;94631.63;;;8.24;76.48
41234;BME280;26968;42.686;23.352;2024-03-02T04:49:07;94635.13;;;8.16;76.28
41234;BME280;26968;42.686;23.352;2024-03-02T04:51:33;94628.44;;;8.22;77.93
41234;BME280;26968;42.686;23.352;2024-03-02T04:53:59;94636.09;;;8.15;78.32
41234;BME280;26968;42.686;23.352;2024-03-02T04:56:24;94640.94;;;8.25;80.06
41234;BME280;26968;42.686;23.352;2024-03-02T04:59:09;94623.56;;;8.05;77.96
41234;BME280;26968;42.686;23.352;2024-03-02T05:01:35;94639.28;;;8.17;79.59
41234;BME280;26968;42.686;23.352;2024-03-02T05:04:00;94620.41;;;8.10;80.60
41234;BME280;26968;42.686;23.352;2024-03-02T05:06:26;94639.16;;;8.25;80.18
41234;BME280;26968;42.686;23.352;2024-03-02T05:08:51;94643.91;;;8.22;79.72
41234;BME280;26968;42.686;23.352;2024-03-02T05:11:17;94647.88;;;8.24;80.97
41234;BME280;26968;42.686;23.352;2024-03-02T05:14:15;94649.44;;;8.25;80.66
41234;BME280;26968;42.686;23.352;2024-03-02T05:16:40;94651.81;;;8.20;81.53
41234;BME280;26968;42.686;23.352;2024-03-02T05:19:07;94659.66;;;8.12;80.58
41234;BME280;26968;42.686;23.352;2024-03-02T05:21:33;94658.31;;;8.16;81.56
41234;BME280;26968;42.686;23.352;2024-03-02T05:23:59;94660.88;;;8.16;81.08
41234;BME280;26968;42.686;23.352;2024-03-02T05:26:25;94650.75;;;8.15;80.82
41234;BME280;26968;42.686;23.352;2024-03-02T05:28:50;94645.94;;;8.05;80.77
41234;BME280;26968;42.686;23.352;2024-03-02T05:31:16;94662.13;;;8.20;82.47
41234;BME280;26968;42.686;23.352;2024-03-02T05:33:42;94651.69;;;8.07;81.58
41234;BME280;26968;42.686;23.352;2024-03-02T05:36:08;94670.03;;;8.19;82.52
41234;BME280;26968;42.686;23.352;2024-03-02T05:38:36;94667.69;;;8.02;81.59
41234;BME280;26968;42.686;23.352;2024-03-02T05:41:02;94672.41;;;7.99;81.28
41234;BME280;26968;42.686;23.352;2024-03-02T05:43:28;94673.41;;;7.98;81.16
41234;BME280;26968;42.686;23.352;2024-03-02T05:45:54;94678.44;;;8.06;81.62
41234;BME280;26968;42.686;23.352;2024-03-02T05:48:19;94661.50;;;7.97;81.56
41234;BME280;26968;42.686;23.352;2024-03-02T05:50:45;94672.50;;;8.05;82.47
41234;BME280;26968;42.686;23.352;2024-03-02T05:53:10;94672.31;;;8.07;82.36
41234;BME280;26968;42.686;23.352;2024-03-02T05:55:35;94685.84;;;8.16;81.37
41234;BME280;26968;42.686;23.352;2024-03-02T05:58:01;94681.50;;;8.16;81.38
41234;BME280;26968;42.686;23.352;2024-03-02T06:00:45;94678.66;;;8.11;82.01
41234;BME280;26968;42.686;23.352;2024-03-02T06:03:10;94689.78;;;8.11;81.03
41234;BME280;26968;42.686;23.352;2024-03-02T06:05:36;94680.41;;;8.04;82.00
41234;BME280;26968;42.686;23.352;2024-03-02T06:08:01;94689.72;;;8.05;80.74
41234;BME280;26968;42.686;23.352;2024-03-02T06:10:27;94674.44;;;8.03;81.84
41234;BME280;26968;42.686;23.352;2024-03-02T06:12:52;94681.69;;;8.15;81.51
41234;BME280;26968;42.686;23.352;2024-03-02T06:15:18;94684.44;;;8.13;81.76
41234;BME280;26968;42.686;23.352;2024-03-02T06:17:43;94691.44;;;8.19;82.35
41234;BME280;26968;42.686;23.352;2024-03-02T06:20:09;94685.41;;;8.12;82.14
41234;BME280;26968;42.686;23.352;2024-03-02T06:22:36;94679.06;;;8.08;81.81
41234;BME280;26968;42.686;23.352;2024-03-02T06:25:01;94691.31;;;8.06;81.98
41234;BME280;26968;42.686;23.352;2024-03-02T06:27:26;94688.44;;;7.94;81.48
41234;BME280;26968;42.686;23.352;2024-03-02T06:29:52;94695.25;;;8.02;81.30
41234;BME280;26968;42.686;23.352;2024-03-02T06:32:17;94688.31;;;8.02;81.26
41234;BME280;26968;42.686;23.352;2024-03-02T06:34:43;94699.28;;;8.11;81.79
41234;BME280;26968;42.686;23.352;2024-03-02T06:37:08;94696.13;;;8.09;82.17
41234;BME280;26968;42.686;23.352;2024-03-02T06:39:33;94702.84;;;8.10;81.41
41234;BME280;26968;42.686;23.352;2024-03-02T06:42:00;94694.97;;;7.97;82.63
41234;BME280;26968;42.686;23.352;2024-03-02T06:44:25;94704.81;;;8.08;83.05
41234;BME280;26968;42.686;23.352;2024-03-02T06:46:51;94698.91;;;8.14;81.45
41234;BME280;26968;42.686;23.352;2024-03-02T06:49:16;94703.34;;;8.20;80.98
41234;BME280;26968;42.686;23.352;2024-03-02T06:51:44;94698.56;;;8.17;81.04
41234;BME280;26968;42.686;23.352;2024-03-02T06:54:09;94697.22;;;8.21;80.75
41234;BME280;26968;42.686;23.352;2024-03-02T06:56:35;94707.56;;;8.28;81.95
41234;BME280;26968;42.686;23.352;2024-03-02T06:59:00;94689.66;;;8.20;81.80
41234;BME280;26968;42.686;23.352;2024-03-02T07:01:26;94696.94;;;8.16;81.20
41234;BME280;26968;42.686;23.352;2024-03-02T07:03:53;94707.25;;;8.16;80.76
41234;BME280;26968;42.686;23.352;2024-03-02T07:06:19;94714.09;;;8.24;80.78
41234;BME280;26968;42.686;23.352;2024-03-02T07:08:44;94712.06;;;8.19;80.81
41234;BME280;26968;42.686;23.352;2024-03-02T07:11:10;94712.38;;;8.09;81.61
41234;BME280;26968;42.686;23.352;2024-03-02T07:13:35;94717.19;;;8.19;81.56
41234;BME280;26968;42.686;23.352;2024-03-02T07:16:00;94712.41;;;8.16;80.75
41234;BME280;26968;42.686;23.352;2024-03-02T07:18:29;94719.16;;;8.17;80.77
41234;BME280;26968;42.686;23.352;2024-03-02T07:20:56;94718.63;;;8.22;80.60
41234;BME280;26968;42.686;23.352;2024-03-02T07:23:24;94694.06;;;8.04;80.78
41234;BME280;26968;42.686;23.352;2024-03-02T07:25:52;94688.69;;;7.78;81.98
41234;BME280;26968;42.686;23.352;2024-03-02T07:28:25;94718.41;;;8.02;80.45
41234;BME280;26968;42.686;23.352;2024-03-02T07:31:03;94729.94;;;7.85;82.63
41234;BME280;26968;42.686;23.352;2024-03-02T07:33:30;94713.75;;;7.91;81.38
41234;BME280;26968;42.686;23.352;2024-03-02T07:35:56;94724.63;;;8.07;81.22
41234;BME280;26968;42.686;23.352;2024-03-02T07:38:22;94716.31;;;8.12;81.32
41234;BME280;26968;42.686;23.352;2024-03-02T07:40:49;94711.94;;;8.06;81.19
41234;BME280;26968;42.686;23.352;2024-03-02T07:43:18;94721.13;;;8.15;81.05
41234;BME280;26968;42.686;23.352;2024-03-02T07:45:47;94691.19;;;7.93;81.55
41234;BME280;26968;42.686;23.352;2024-03-02T07:48:14;94731.16;;;8.10;81.20
41234;BME280;26968;42.686;23.352;2024-03-02T07:50:39;94734.00;;;8.15;80.99
41234;BME280;26968;42.686;23.352;2024-03-02T07:53:05;94731.91;;;8.04;82.66
41234;BME280;26968;42.686;23.352;2024-03-02T07:55:31;94726.16;;;8.02;82.46
41234;BME280;26968;42.686;23.352;2024-03-02T07:57:57;94739.69;;;8.10;82.24
41234;BME280;26968;42.686;23.352;2024-03-02T08:00:23;94736.28;;;8.03;82.32
41234;BME280;26968;42.686;23.352;2024-03-02T08:02:50;94721.13;;;7.94;82.83
41234;BME280;26968;42.686;23.352;2024-03-02T08:05:18;94727.25;;;7.93;82.25
41234;BME280;26968;42.686;23.352;2024-03-02T08:07:44;94746.09;;;8.15;81.70
41234;BME280;26968;42.686;23.352;2024-03-02T08:10:10;94742.53;;;8.16;82.58
41234;BME280;26968;42.686;23.352;2024-03-02T08:12:35;94753.63;;;8.16;81.32
41234;BME280;26968;42.686;23.352;2024-03-02T08:15:01;94738.19;;;8.16;81.74
41234;BME280;26968;42.686;23.352;2024-03-02T08:17:26;94744.25;;;8.30;82.37
41234;BME280;26968;42.686;23.352;2024-03-02T08:19:52;94738.06;;;8.24;81.39
41234;BME280;26968;42.686;23.352;2024-03-02T08:22:18;94735.38;;;8.32;81.46
41234;BME280;26968;42.686;23.352;2024-03-02T08:24:44;94747.16;;;8.41;83.17
41234;BME280;26968;42.686;23.352;2024-03-02T08:27:10;94741.00;;;8.42;82.06
41234;BME280;26968;42.686;23.352;2024-03-02T08:29:35;94750.22;;;8.52;81.31
41234;BME280;26968;42.686;23.352;2024-03-02T08:32:01;94732.91;;;8.45;82.55
41234;BME280;26968;42.686;23.352;2024-03-02T08:34:26;94743.69;;;8.56;82.55
41234;BME280;26968;42.686;23.352;2024-03-02T08:36:52;94726.59;;;8.48;81.48
41234;BME280;26968;42.686;23.352;2024-03-02T08:39:17;94748.75;;;8.42;82.05
41234;BME280;26968;42.686;23.352;2024-03-02T08:41:45;94744.28;;;8.51;82.25
41234;BME280;26968;42.686;23.352;2024-03-02T08:44:12;94744.94;;;8.60;81.50
41234;BME280;26968;42.686;23.352;2024-03-02T08:46:39;94747.00;;;8.71;81.67
41234;BME280;26968;42.686;23.352;2024-03-02T08:49:04;94739.41;;;8.63;81.82
41234;BME280;26968;42.686;23.352;2024-03-02T08:51:30;94745.91;;;8.87;81.22
41234;BME280;26968;42.686;23.352;2024-03-02T08:53:56;94737.25;;;8.94;81.84
41234;BME280;26968;42.686;23.352;2024-03-02T08:56:23;94741.16;;;9.11;81.66
41234;BME280;26968;42.686;23.352;2024-03-02T08:58:49;94739.63;;;9.24;79.20
41234;BME280;26968;42.686;23.352;2024-03-02T09:01:16;94748.59;;;9.28;80.01
41234;BME280;26968;42.686;23.352;2024-03-02T09:03:42;94745.66;;;9.37;80.00
41234;BME280;26968;42.686;23.352;2024-03-02T09:06:11;94741.13;;;9.46;79.14
41234;BME280;26968;42.686;23.352;2024-03-02T09:08:36;94722.47;;;9.50;78.00
41234;BME280;26968;42.686;23.352;2024-03-02T09:11:04;94745.22;;;9.75;77.77
41234;BME280;26968;42.686;23.352;2024-03-02T09:13:31;94735.84;;;9.67;76.92
41234;BME280;26968;42.686;23.352;2024-03-02T09:15:56;94751.56;;;9.72;78.40
41234;BME280;26968;42.686;23.352;2024-03-02T09:18:22;94752.59;;;9.84;77.86
41234;BME280;26968;42.686;23.352;2024-03-02T09:20:47;94724.94;;;9.78;78.14
41234;BME280;26968;42.686;23.352;2024-03-02T09:23:13;94757.00;;;9.91;77.27
41234;BME280;26968;42.686;23.352;2024-03-02T09:25:39;94761.88;;;9.66;75.83
41234;BME280;26968;42.686;23.352;2024-03-02T09:28:05;94735.84;;;9.61;76.41
41234;BME280;26968;42.686;23.352;2024-03-02T09:30:32;94760.31;;;9.78;76.23
41234;BME280;26968;42.686;23.352;2024-03-02T09:32:57;94757.06;;;9.56;77.07
41234;BME280;26968;42.686;23.352;2024-03-02T09:35:23;94762.72;;;9.79;76.14
41234;BME280;26968;42.686;23.352;2024-03-02T09:37:48;94758.53;;;9.72;76.40
41234;BME280;26968;42.686;23.352;2024-03-02T09:40:14;94755.03;;;9.45;76.90
41234;BME280;26968;42.686;23.352;2024-03-02T09:42:41;94762.00;;;9.51;78.29
41234;BME280;26968;42.686;23.352;2024-03-02T09:45:09;94751.09;;;9.56;79.03
41234;BME280;26968;42.686;23.352;2024-03-02T09:47:35;94759.22;;;9.46;78.92
41234;BME280;26968;42.686;23.352;2024-03-02T09:50:01;94757.06;;;9.56;77.21
41234;BME280;26968;42.686;23.352;2024-03-02T09:52:27;94758.28;;;9.60;76.59
41234;BME280;26968;42.686;23.352;2024-03-02T09:54:52;94761.06;;;9.65;76.46
41234;BME280;26968;42.686;23.352;2024-03-02T09:57:18;94762.28;;;9.69;76.61
41234;BME280;26968;42.686;23.352;2024-03-02T09:59:44;94764.72;;;9.77;76.48
41234;BME280;26968;42.686;23.352;2024-03-02T10:02:10;94745.19;;;9.68;76.14
41234;BME280;26968;42.686;23.352;2024-03-02T10:04:36;94759.13;;;9.80;77.14
41234;BME280;26968;42.686;23.352;2024-03-02T10:07:15;94764.28;;;9.74;77.11
41234;BME280;26968;42.686;23.352;2024-03-02T10:09:43;94744.44;;;9.74;78.34
41234;BME280;26968;42.686;23.352;2024-03-02T10:12:10;94768.00;;;9.65;77.89
41234;BME280;26968;42.686;23.352;2024-03-02T10:14:40;94757.50;;;9.66;78.88
41234;BME280;26968;42.686;23.352;2024-03-02T10:17:10;94750.16;;;9.70;78.76
41234;BME280;26968;42.686;23.352;2024-03-02T10:19:36;94748.75;;;9.67;76.99
41234;BME280;26968;42.686;23.352;2024-03-02T10:22:06;94770.66;;;9.78;77.46
41234;BME280;26968;42.686;23.352;2024-03-02T10:24:39;94767.44;;;9.69;78.53
41234;BME280;26968;42.686;23.352;2024-03-02T10:27:30;94767.50;;;9.82;78.06
41234;BME280;26968;42.686;23.352;2024-03-02T10:29:56;94756.78;;;9.85;78.68
41234;BME280;26968;42.686;23.352;2024-03-02T10:32:22;94761.94;;;9.85;77.21
41234;BME280;26968;42.686;23.352;2024-03-02T10:34:50;94763.13;;;9.76;77.07
41234;BME280;26968;42.686;23.352;2024-03-02T10:37:16;94769.41;;;9.67;79.41
41234;BME280;26968;42.686;23.352;2024-03-02T10:39:42;94714.47;;;9.39;78.63
41234;BME280;26968;42.686;23.352;2024-03-02T10:42:08;94758.16;;;9.75;77.79
41234;BME280;26968;42.686;23.352;2024-03-02T10:44:34;94752.56;;;9.71;78.37
41234;BME280;26968;42.686;23.352;2024-03-02T10:47:02;94757.13;;;9.69;78.83
41234;BME280;26968;42.686;23.352;2024-03-02T10:49:30;94754.31;;;9.64;79.07
41234;BME280;26968;42.686;23.352;2024-03-02T10:52:00;94750.53;;;9.67;79.18
41234;BME280;26968;42.686;23.352;2024-03-02T10:54:26;94737.03;;;9.65;79.07
41234;BME280;26968;42.686;23.352;2024-03-02T10:56:55;94750.41;;;9.81;78.68
41234;BME280;26968;42.686;23.352;2024-03-02T10:59:28;94755.19;;;9.84;77.55
41234;BME280;26968;42.686;23.352;2024-03-02T11:01:58;94732.47;;;9.67;77.63
41234;BME280;26968;42.686;23.352;2024-03-02T11:04:25;94748.41;;;9.77;77.67
41234;BME280;26968;42.686;23.352;2024-03-02T11:06:52;94724.91;;;9.59;78.76
41234;BME280;26968;42.686;23.352;2024-03-02T11:09:25;94712.38;;;9.56;77.83
41234;BME280;26968;42.686;23.352;2024-03-02T11:12:12;94752.56;;;9.71;78.76
41234;BME280;26968;42.686;23.352;2024-03-02T11:14:41;94742.66;;;9.75;79.57
41234;BME280;26968;42.686;23.352;2024-03-02T11:17:09;94743.06;;;9.85;78.92
41234;BME280;26968;42.686;23.352;2024-03-02T11:19:38;94730.06;;;9.65;77.31
41234;BME280;26968;42.686;23.352;2024-03-02T11:22:04;94728.88;;;9.61;77.34
41234;BME280;26968;42.686;23.352;2024-03-02T11:24:31;94697.56;;;9.30;77.32
41234;BME280;26968;42.686;23.352;2024-03-02T11:27:09;94708.91;;;9.35;77.04
41234;BME280;26968;42.686;23.352;2024-03-02T11:32:30;94744.72;;;9.45;77.28
41234;BME280;26968;42.686;23.352;2024-03-02T11:34:56;94732.94;;;9.36;79.02
41234;BME280;26968;42.686;23.352;2024-03-02T11:37:22;94737.53;;;9.40;79.69
41234;BME280;26968;42.686;23.352;2024-03-02T11:39:49;94728.81;;;9.48;78.99
41234;BME280;26968;42.686;23.352;2024-03-02T11:42:18;94679.09;;;9.26;79.11
41234;BME280;26968;42.686;23.352;2024-03-02T11:44:47;94729.59;;;9.42;78.68
41234;BME280;26968;42.686;23.352;2024-03-02T11:47:15;94709.38;;;9.45;78.46
41234;BME280;26968;42.686;23.352;2024-03-02T11:49:50;94733.06;;;9.62;79.10
41234;BME280;26968;42.686;23.352;2024-03-02T11:52:17;94728.09;;;9.61;79.24
41234;BME280;26968;42.686;23.352;2024-03-02T11:54:45;94717.31;;;9.50;79.53
41234;BME280;26968;42.686;23.352;2024-03-02T11:57:18;94730.06;;;9.65;79.35
41234;BME280;26968;42.686;23.352;2024-03-02T11:59:44;94719.75;;;9.65;77.44
41234;BME280;26968;42.686;23.352;2024-03-02T12:02:18;94736.50;;;9.76;78.97
41234;BME280;26968;42.686;23.352;2024-03-02T12:04:44;94708.25;;;9.68;77.68
41234;BME280;26968;42.686;23.352;2024-03-02T12:07:10;94732.34;;;9.88;78.77
41234;BME280;26968;42.686;23.352;2024-03-02T12:09:36;94725.78;;;9.85;77.23
41234;BME280;26968;42.686;23.352;2024-03-02T12:14:29;94724.44;;;10.03;77.46
41234;BME280;26968;42.686;23.352;2024-03-02T12:16:55;94713.34;;;9.55;77.62
41234;BME280;26968;42.686;23.352;2024-03-02T12:19:21;94707.56;;;9.46;77.76
41234;BME280;26968;42.686;23.352;2024-03-02T12:21:47;94724.53;;;9.68;78.70
41234;BME280;26968;42.686;23.352;2024-03-02T12:24:12;94720.41;;;9.80;77.80
41234;BME280;26968;42.686;23.352;2024-03-02T12:26:38;94738.53;;;10.00;77.76
41234;BME280;26968;42.686;23.352;2024-03-02T12:29:04;94716.06;;;9.87;76.22
41234;BME280;26968;42.686;23.352;2024-03-02T12:31:30;94700.72;;;9.79;76.04
41234;BME280;26968;42.686;23.352;2024-03-02T12:33:55;94699.72;;;9.74;76.25
41234;BME280;26968;42.686;23.352;2024-03-02T12:36:22;94722.03;;;9.95;76.33
41234;BME280;26968;42.686;23.352;2024-03-02T12:38:47;94700.75;;;9.86;75.34
41234;BME280;26968;42.686;23.352;2024-03-02T12:41:16;94689.41;;;9.80;75.27
41234;BME280;26968;42.686;23.352;2024-03-02T12:43:42;94728.22;;;10.13;74.68
41234;BME280;26968;42.686;23.352;2024-03-02T12:46:07;94739.63;;;10.19;77.60
41234;BME280;26968;42.686;23.352;2024-03-02T12:48:34;94699.75;;;9.87;74.89
41234;BME280;26968;42.686;23.352;2024-03-02T12:51:01;94729.03;;;10.07;74.39
41234;BME280;26968;42.686;23.352;2024-03-02T12:53:26;94732.97;;;9.97;77.35
41234;BME280;26968;42.686;23.352;2024-03-02T12:55:52;94708.72;;;9.98;75.32
41234;BME280;26968;42.686;23.352;2024-03-02T12:58:22;94734.84;;;10.23;75.40
41234;BME280;26968;42.686;23.352;2024-03-02T13:00:49;94711.97;;;10.19;73.43
41234;BME280;26968;42.686;23.352;2024-03-02T13:03:14;94718.28;;;10.10;75.36
41234;BME280;26968;42.686;23.352;2024-03-02T13:05:48;94722.66;;;10.10;74.68
41234;BME280;26968;42.686;23.352;2024-03-02T13:08:14;94731.19;;;10.10;73.77